Time;durP1;ratioP1;P1;durP2;ratioP2;P2;SDS_P1;SDS_P2;PMS_P1;PMS_P2;Temp;Humidity;BMP_temperature;BMP_pressure;BME280_temperature;BME280_humidity;BME280_pressure;Samples;Min_cycle;Max_cycle;Signal;HPM_P1;HPM_P2
2022/04/14 00:00:13;;;;;;;20.23;9.18;;;13.00;67.10;;;;;;5054585;28;20081;-65
2022/04/14 00:02:39;;;;;;;14.90;8.60;;;13.00;67.10;;;;;;5054086;28;20509;-64
2022/04/14 00:05:05;;;;;;;16.88;8.48;;;13.00;67.40;;;;;;5055053;28;20110;-65
2022/04/14 00:07:31;;;;;;;12.70;8.15;;;13.00;67.20;;;;;;5055340;28;20393;-65
2022/04/14 00:09:57;;;;;;;10.05;7.28;;;13.10;66.90;;;;;;5055059;28;20033;-69
2022/04/14 00:12:23;;;;;;;14.13;7.40;;;13.10;66.80;;;;;;5054728;28;20045;-65
2022/04/14 00:14:48;;;;;;;11.07;7.05;;;13.00;66.80;;;;;;5055116;28;20104;-65
2022/04/14 00:17:14;;;;;;;14.52;7.55;;;13.00;66.80;;;;;;5054901;28;20033;-65
2022/04/14 00:19:40;;;;;;;12.55;7.13;;;13.00;66.70;;;;;;5054715;28;20045;-66
2022/04/14 00:22:07;;;;;;;10.75;6.93;;;13.00;66.50;;;;;;5054797;28;20029;-66
2022/04/14 00:24:33;;;;;;;10.48;6.28;;;13.00;66.70;;;;;;5055201;28;20075;-65
2022/04/14 00:26:58;;;;;;;12.32;6.25;;;13.10;66.60;;;;;;5054566;28;20057;-65
2022/04/14 00:29:24;;;;;;;10.07;7.07;;;13.10;66.60;;;;;;5054463;28;20045;-71
2022/04/14 00:31:50;;;;;;;10.93;6.60;;;13.10;66.40;;;;;;5054767;28;20083;-65
2022/04/14 00:34:16;;;;;;;9.20;6.22;;;13.10;66.10;;;;;;5054510;28;20444;-64
2022/04/14 00:36:42;;;;;;;13.35;7.03;;;13.10;66.00;;;;;;5054344;28;20028;-65
2022/04/14 00:39:09;;;;;;;10.90;7.32;;;13.00;65.90;;;;;;5054697;28;20041;-65
2022/04/14 00:41:36;;;;;;;13.70;7.45;;;13.00;65.90;;;;;;5054458;28;20037;-65
2022/04/14 00:44:02;;;;;;;13.10;8.13;;;13.00;66.00;;;;;;5054762;28;20033;-70
2022/04/14 00:46:27;;;;;;;11.32;7.88;;;12.90;66.00;;;;;;5054476;28;20036;-69
2022/04/14 00:48:53;;;;;;;16.83;8.63;;;13.00;66.50;;;;;;5054530;28;20040;-66
2022/04/14 00:51:19;;;;;;;11.95;8.50;;;12.90;66.30;;;;;;5054257;28;20037;-65
2022/04/14 00:53:45;;;;;;;15.50;9.07;;;12.90;66.60;;;;;;5054297;28;20512;-65
2022/04/14 00:56:10;;;;;;;13.35;9.18;;;12.90;66.40;;;;;;5054366;28;20498;-65
2022/04/14 00:58:37;;;;;;;12.75;8.60;;;;;;;;;;5052183;28;20138;-65
2022/04/14 01:01:07;;;;;;;14.50;9.48;;;;;;;;;;5051220;28;20060;-66
2022/04/14 01:03:33;;;;;;;16.85;9.43;;;;;;;;;;5051242;28;20041;-65
2022/04/14 01:06:00;;;;;;;14.55;9.13;;;;;;;;;;5053727;28;20048;-66
2022/04/14 01:08:30;;;;;;;15.55;8.40;;;;;;;;;;5054088;28;20485;-65
2022/04/14 01:10:57;;;;;;;14.10;8.77;;;;;;;;;;5054054;28;20378;-66
2022/04/14 01:13:23;;;;;;;18.98;10.18;;;;;;;;;;5053400;28;20478;-65
2022/04/14 01:15:49;;;;;;;13.73;8.93;;;;;;;;;;5053683;28;20560;-65
2022/04/14 01:18:16;;;;;;;19.02;9.00;;;;;;;;;;5053723;28;20447;-65
2022/04/14 01:20:42;;;;;;;13.20;8.90;;;;;;;;;;5053421;28;20080;-65
2022/04/14 01:23:09;;;;;;;14.73;8.40;;;;;;;;;;5053353;28;20044;-66
2022/04/14 01:25:36;;;;;;;17.88;9.38;;;;;;;;;;5053242;28;20033;-65
2022/04/14 01:28:02;;;;;;;17.83;9.00;;;;;;;;;;5053490;28;20524;-65
2022/04/14 01:30:29;;;;;;;12.32;8.95;;;;;;;;;;5053875;28;20527;-65
2022/04/14 01:32:55;;;;;;;21.38;9.20;;;;;;;;;;5053438;28;20045;-65
2022/04/14 01:35:21;;;;;;;11.98;8.40;;;;;;;;;;5053250;28;20029;-65
2022/04/14 01:37:47;;;;;;;14.30;8.30;;;;;;;;;;5053292;28;20036;-66
2022/04/14 01:40:14;;;;;;;11.02;8.00;;;;;;;;;;5053436;28;20044;-65
2022/04/14 01:42:39;;;;;;;13.57;8.05;;;12.80;66.50;;;;;;5053196;28;20477;-65
2022/04/14 01:45:07;;;;;;;14.32;8.95;;;12.40;67.50;;;;;;5053436;28;20104;-65
2022/04/14 01:47:41;;;;;;;14.15;9.02;;;12.30;67.60;;;;;;5053386;28;20106;-65
2022/04/14 01:50:09;;;;;;;14.77;8.48;;;12.30;67.90;;;;;;5053415;28;20386;-65
2022/04/14 01:52:36;;;;;;;13.73;9.25;;;12.20;68.00;;;;;;5053343;28;20409;-65
2022/04/14 01:55:03;;;;;;;13.52;9.20;;;12.10;68.00;;;;;;5053364;28;20106;-65
2022/04/14 01:57:28;;;;;;;13.80;9.60;;;12.00;68.40;;;;;;5053007;28;20037;-69
2022/04/14 01:59:54;;;;;;;14.48;9.18;;;12.10;68.60;;;;;;5053051;28;20144;-66
2022/04/14 02:02:20;;;;;;;14.50;8.95;;;12.10;68.50;;;;;;5052879;28;20061;-65
2022/04/14 02:04:46;;;;;;;19.40;9.18;;;12.10;68.40;;;;;;5053122;28;20078;-65
2022/04/14 02:07:13;;;;;;;17.65;8.68;;;12.20;68.40;;;;;;5052969;28;20436;-65
2022/04/14 02:09:38;;;;;;;14.63;8.65;;;12.10;68.40;;;;;;5052879;28;20025;-65
2022/04/14 02:12:05;;;;;;;13.82;8.85;;;12.20;68.40;;;;;;5052734;28;20036;-65
2022/04/14 02:14:30;;;;;;;19.73;9.23;;;12.10;68.40;;;;;;5053006;28;20113;-65
2022/04/14 02:16:56;;;;;;;18.63;10.13;;;12.20;68.60;;;;;;5052592;28;20127;-65
2022/04/14 02:19:22;;;;;;;18.35;8.73;;;12.20;68.70;;;;;;5052658;28;20487;-70
2022/04/14 02:21:47;;;;;;;14.95;8.18;;;12.10;68.50;;;;;;5052384;28;20040;-65
2022/04/14 02:24:13;;;;;;;16.42;8.75;;;12.10;68.90;;;;;;5052597;28;20099;-65
2022/04/14 02:26:38;;;;;;;12.45;8.38;;;12.10;69.00;;;;;;5053037;28;20033;-71
2022/04/14 02:29:04;;;;;;;13.75;8.25;;;12.10;69.30;;;;;;5052804;28;20186;-65
2022/04/14 02:31:30;;;;;;;18.98;8.23;;;12.10;69.30;;;;;;5052501;28;20584;-70
2022/04/14 02:33:55;;;;;;;15.43;8.40;;;12.00;69.30;;;;;;5052523;28;20068;-65
2022/04/14 02:36:21;;;;;;;18.67;8.10;;;12.00;69.50;;;;;;5052931;28;20064;-65
2022/04/14 02:38:47;;;;;;;17.35;7.93;;;12.00;69.30;;;;;;5052764;28;20048;-65
2022/04/14 02:41:12;;;;;;;14.88;8.90;;;12.00;69.10;;;;;;5052460;28;20040;-70
2022/04/14 02:43:38;;;;;;;12.73;8.15;;;12.00;69.50;;;;;;5052752;28;20041;-70
2022/04/14 02:46:04;;;;;;;15.35;8.38;;;12.00;69.50;;;;;;5052777;28;20106;-65
2022/04/14 02:48:31;;;;;;;16.27;8.70;;;12.00;68.90;;;;;;5052396;28;20473;-65
2022/04/14 02:50:57;;;;;;;16.27;7.93;;;12.00;69.00;;;;;;5052465;28;20029;-65
2022/04/14 02:53:23;;;;;;;15.88;8.35;;;12.00;69.00;;;;;;5052626;28;20422;-64
2022/04/14 02:55:49;;;;;;;16.65;8.02;;;11.90;68.80;;;;;;5052644;28;20397;-65
2022/04/14 02:58:14;;;;;;;11.98;7.82;;;11.90;68.80;;;;;;5052236;28;20053;-65
2022/04/14 03:00:40;;;;;;;18.33;8.13;;;11.90;68.70;;;;;;5052467;28;20052;-65
2022/04/14 03:03:06;;;;;;;12.70;8.25;;;11.80;68.70;;;;;;5052335;28;20103;-70
2022/04/14 03:05:32;;;;;;;16.42;8.75;;;11.80;68.90;;;;;;5052283;28;20029;-65
2022/04/14 03:07:57;;;;;;;19.50;8.25;;;11.80;69.00;;;;;;5052705;28;20044;-64
2022/04/14 03:10:23;;;;;;;13.10;8.55;;;11.70;69.20;;;;;;5052302;28;20037;-65
2022/04/14 03:12:50;;;;;;;13.45;7.68;;;11.70;69.50;;;;;;5052704;28;20037;-65
2022/04/14 03:15:16;;;;;;;12.30;7.43;;;11.70;69.90;;;;;;5052577;28;20036;-65
2022/04/14 03:17:43;;;;;;;12.82;7.30;;;11.70;70.10;;;;;;5052403;28;20033;-65
2022/04/14 03:20:10;;;;;;;11.40;7.88;;;11.70;70.20;;;;;;5052278;28;20489;-70
2022/04/14 03:22:36;;;;;;;17.48;7.82;;;11.70;70.40;;;;;;5051975;28;20025;-65
2022/04/14 03:25:08;;;;;;;13.20;7.68;;;11.60;70.30;;;;;;5052246;28;20036;-65
2022/04/14 03:27:34;;;;;;;16.70;7.22;;;11.60;70.40;;;;;;5052255;28;20037;-67
2022/04/14 03:30:00;;;;;;;17.15;8.18;;;11.70;70.20;;;;;;5052546;28;20037;-65
2022/04/14 03:32:25;;;;;;;13.02;8.25;;;11.70;69.90;;;;;;5052272;28;20033;-65
2022/04/14 03:34:52;;;;;;;13.40;8.50;;;11.60;69.50;;;;;;5055056;28;20044;-70
2022/04/14 03:37:18;;;;;;;12.05;8.18;;;11.60;69.40;;;;;;5056008;28;20064;-64
2022/04/14 03:39:44;;;;;;;13.70;8.13;;;11.60;69.60;;;;;;5055652;28;20072;-64
2022/04/14 03:42:09;;;;;;;14.38;7.50;;;11.50;70.10;;;;;;5055375;28;20036;-65
2022/04/14 03:44:35;;;;;;;16.42;7.55;;;11.50;70.20;;;;;;5055496;28;20115;-65
2022/04/14 03:47:01;;;;;;;20.88;8.18;;;11.50;70.00;;;;;;5055593;28;20363;-65
2022/04/14 03:49:26;;;;;;;14.73;8.00;;;11.50;70.10;;;;;;5055635;28;20473;-65
2022/04/14 03:51:54;;;;;;;16.85;8.07;;;11.40;70.10;;;;;;5055722;28;20033;-65
2022/04/14 03:54:20;;;;;;;16.00;8.32;;;11.40;69.90;;;;;;5055565;28;20033;-64
2022/04/14 03:56:47;;;;;;;22.60;8.80;;;11.40;69.80;;;;;;5055079;28;20037;-65
2022/04/14 03:59:13;;;;;;;19.38;8.70;;;11.40;69.70;;;;;;5055227;28;20045;-65
2022/04/14 04:01:39;;;;;;;16.75;8.77;;;11.40;69.60;;;;;;5055421;28;20025;-65
2022/04/14 04:04:05;;;;;;;20.27;8.57;;;11.40;69.60;;;;;;5055371;28;20029;-65
2022/04/14 04:06:31;;;;;;;13.45;9.07;;;11.40;70.30;;;;;;5055065;28;20034;-68
2022/04/14 04:08:57;;;;;;;17.58;9.02;;;11.40;69.40;;;;;;5054954;28;20045;-65
2022/04/14 04:11:22;;;;;;;15.93;9.82;;;11.30;69.50;;;;;;5054991;28;20033;-66
2022/04/14 04:13:48;;;;;;;18.55;9.27;;;11.30;69.40;;;;;;5055039;28;20043;-65
2022/04/14 04:16:14;;;;;;;15.05;8.80;;;11.30;69.50;;;;;;5055070;28;20036;-65
2022/04/14 04:18:39;;;;;;;19.50;8.93;;;11.20;69.60;;;;;;5054965;28;20041;-64
2022/04/14 04:21:05;;;;;;;23.38;9.70;;;11.20;69.90;;;;;;5054715;28;20064;-66
2022/04/14 04:23:31;;;;;;;18.52;10.20;;;11.10;70.00;;;;;;5054919;28;20401;-69
2022/04/14 04:25:57;;;;;;;21.85;10.05;;;11.10;70.10;;;;;;5054881;28;20041;-70
2022/04/14 04:28:41;;;;;;;26.27;9.55;;;11.10;70.40;;;;;;5054861;28;20033;-66
2022/04/14 04:31:06;;;;;;;20.70;10.00;;;11.00;70.60;;;;;;5054711;28;20067;-66
2022/04/14 04:33:32;;;;;;;19.17;8.82;;;11.00;71.00;;;;;;5054883;28;20037;-65
2022/04/14 04:35:57;;;;;;;17.95;8.30;;;11.00;71.00;;;;;;5054794;28;20028;-65
2022/04/14 04:38:23;;;;;;;18.00;9.05;;;11.00;71.00;;;;;;5054413;28;20490;-65
2022/04/14 04:40:49;;;;;;;18.60;8.60;;;10.90;71.20;;;;;;5054482;28;20083;-70
2022/04/14 04:43:15;;;;;;;16.23;9.23;;;10.80;71.20;;;;;;5054499;28;20033;-65
2022/04/14 04:45:42;;;;;;;24.30;9.70;;;10.80;71.70;;;;;;5053928;28;20090;-65
2022/04/14 04:48:07;;;;;;;24.40;10.05;;;10.80;71.70;;;;;;5054438;28;20036;-70
2022/04/14 04:50:33;;;;;;;18.13;9.75;;;10.80;71.60;;;;;;5054454;28;20036;-66
2022/04/14 04:52:59;;;;;;;19.83;9.18;;;10.80;71.70;;;;;;5054166;28;20068;-65
2022/04/14 04:55:25;;;;;;;16.23;8.77;;;10.80;71.90;;;;;;5054283;28;20037;-65
2022/04/14 04:57:50;;;;;;;16.55;9.50;;;10.80;72.00;;;;;;5054326;28;20048;-65
2022/04/14 05:00:16;;;;;;;20.17;9.68;;;10.80;72.10;;;;;;5053994;28;20047;-65
2022/04/14 05:02:42;;;;;;;18.75;8.75;;;10.80;72.40;;;;;;5053857;28;20033;-65
2022/04/14 05:05:08;;;;;;;19.02;9.00;;;10.80;72.60;;;;;;5053967;28;20045;-69
2022/04/14 05:07:34;;;;;;;21.73;9.18;;;10.80;72.80;;;;;;5053752;28;20064;-65
2022/04/14 05:09:59;;;;;;;16.40;8.65;;;10.90;73.20;;;;;;5053789;28;20429;-65
2022/04/14 05:12:25;;;;;;;17.70;8.63;;;10.90;73.20;;;;;;5053795;28;20040;-65
2022/04/14 05:14:51;;;;;;;14.68;8.20;;;10.90;73.50;;;;;;5054120;28;20112;-70
2022/04/14 05:17:18;;;;;;;16.13;8.02;;;11.00;73.80;;;;;;5053685;28;20087;-65
2022/04/14 05:19:44;;;;;;;15.45;8.50;;;11.00;73.70;;;;;;5053449;28;20059;-65
2022/04/14 05:22:09;;;;;;;23.60;9.13;;;11.00;73.60;;;;;;5053978;28;20041;-64
2022/04/14 05:24:35;;;;;;;19.30;8.00;;;11.10;73.60;;;;;;5053466;28;20037;-64
2022/04/14 05:27:01;;;;;;;22.50;8.35;;;11.10;73.40;;;;;;5053781;28;20087;-70
2022/04/14 05:29:26;;;;;;;20.63;9.00;;;11.20;73.20;;;;;;5053612;28;20056;-65
2022/04/14 05:31:52;;;;;;;15.77;8.73;;;11.20;73.00;;;;;;5053339;28;20466;-70
2022/04/14 05:34:18;;;;;;;18.13;9.15;;;11.30;72.90;;;;;;5053290;28;20048;-70
2022/04/14 05:36:43;;;;;;;17.13;8.50;;;11.30;73.20;;;;;;5053270;28;20071;-65
2022/04/14 05:39:09;;;;;;;13.60;7.72;;;11.40;73.20;;;;;;5053168;28;20051;-65
2022/04/14 05:41:35;;;;;;;14.48;7.47;;;11.40;73.30;;;;;;5053142;28;20037;-64
2022/04/14 05:44:00;;;;;;;20.38;7.65;;;11.50;73.40;;;;;;5053465;28;20033;-70
2022/04/14 05:46:26;;;;;;;13.48;8.02;;;11.50;73.40;;;;;;5053337;28;20036;-64
2022/04/14 05:48:52;;;;;;;19.02;8.20;;;11.60;73.50;;;;;;5053323;28;20040;-64
2022/04/14 05:51:20;;;;;;;26.65;8.48;;;11.60;73.60;;;;;;5053118;28;20036;-64
2022/04/14 05:53:49;;;;;;;15.13;8.05;;;11.70;73.70;;;;;;5052777;28;20105;-65
2022/04/14 05:56:16;;;;;;;18.63;8.25;;;11.70;73.60;;;;;;5052680;28;20083;-66
2022/04/14 05:58:42;;;;;;;20.05;8.18;;;11.80;73.40;;;;;;5052753;28;20500;-63
2022/04/14 06:01:08;;;;;;;16.90;8.05;;;11.80;73.60;;;;;;5052495;28;20056;-63
2022/04/14 06:03:34;;;;;;;16.27;8.32;;;11.90;73.90;;;;;;5052864;28;20045;-63
2022/04/14 06:05:59;;;;;;;18.98;8.95;;;12.00;74.00;;;;;;5052797;28;20450;-64
2022/04/14 06:08:25;;;;;;;19.58;8.82;;;12.00;73.20;;;;;;5052754;28;20444;-63
2022/04/14 06:10:51;;;;;;;31.50;9.00;;;12.10;72.80;;;;;;5051170;28;20501;-62
2022/04/14 06:13:16;;;;;;;21.05;8.00;;;12.20;72.70;;;;;;5052561;28;20041;-62
2022/04/14 06:15:43;;;;;;;26.25;8.10;;;12.30;72.40;;;;;;5052492;28;20036;-63
2022/04/14 06:18:08;;;;;;;18.38;7.82;;;12.30;72.80;;;;;;5040024;28;20044;-62
2022/04/14 06:20:34;;;;;;;15.75;7.97;;;12.40;72.60;;;;;;5053936;28;20039;-62
2022/04/14 06:23:00;;;;;;;23.52;7.68;;;12.40;72.80;;;;;;5052485;28;20067;-62
2022/04/14 06:25:25;;;;;;;17.27;7.50;;;12.50;72.80;;;;;;5052436;28;20025;-63
2022/04/14 06:27:52;;;;;;;20.98;6.85;;;12.50;72.60;;;;;;5052342;28;20033;-62
2022/04/14 06:30:19;;;;;;;20.10;7.63;;;12.60;72.40;;;;;;5052183;28;20033;-62
2022/04/14 06:33:16;;;;;;;21.20;7.30;;;12.60;72.10;;;;;;5052308;28;20037;-62
2022/04/14 06:35:42;;;;;;;15.10;7.47;;;12.70;72.30;;;;;;5043596;28;20037;-62
2022/04/14 06:38:08;;;;;;;31.67;7.97;;;12.80;72.30;;;;;;5052104;28;20045;-70
2022/04/14 06:40:34;;;;;;;26.38;7.75;;;12.90;72.10;;;;;;5052178;28;20041;-61
2022/04/14 06:43:00;;;;;;;13.40;6.93;;;12.90;71.40;;;;;;5052371;28;20072;-62
2022/04/14 06:45:25;;;;;;;17.55;6.80;;;13.00;71.40;;;;;;5052370;28;20116;-64
2022/04/14 06:47:51;;;;;;;21.38;6.80;;;13.10;71.10;;;;;;5051968;28;20643;-64
2022/04/14 06:50:17;;;;;;;17.75;6.00;;;13.20;70.70;;;;;;5052129;28;20473;-64
2022/04/14 06:52:43;;;;;;;14.93;7.18;;;13.30;70.60;;;;;;5052409;28;20032;-65
2022/04/14 06:55:09;;;;;;;19.92;6.93;;;13.30;70.40;;;;;;5052226;28;20037;-65
2022/04/14 06:57:35;;;;;;;17.63;5.90;;;13.40;70.30;;;;;;5050831;28;20444;-65
2022/04/14 07:00:01;;;;;;;13.93;5.63;;;13.40;70.00;;;;;;5051638;28;20567;-65
2022/04/14 07:02:26;;;;;;;13.20;6.03;;;13.50;70.40;;;;;;5052085;28;20037;-68
2022/04/14 07:04:52;;;;;;;13.25;5.85;;;13.60;70.10;;;;;;5052326;28;20389;-65
2022/04/14 07:07:18;;;;;;;16.95;5.75;;;13.60;69.60;;;;;;5052745;28;20466;-67
2022/04/14 07:09:44;;;;;;;14.38;6.35;;;13.70;69.60;;;;;;5056259;28;20025;-70
2022/04/14 07:12:10;;;;;;;14.68;6.00;;;13.80;70.20;;;;;;5053454;28;20033;-65
2022/04/14 07:14:36;;;;;;;14.38;5.72;;;13.90;70.20;;;;;;5054152;28;20033;-65
2022/04/14 07:17:02;;;;;;;17.70;6.88;;;14.00;70.30;;;;;;5053970;28;20405;-65
2022/04/14 07:19:28;;;;;;;11.85;5.90;;;14.00;69.60;;;;;;5055074;28;20072;-69
2022/04/14 07:21:54;;;;;;;15.57;6.20;;;14.10;69.50;;;;;;5055684;28;20061;-64
2022/04/14 07:24:19;;;;;;;13.45;6.38;;;14.20;69.60;;;;;;5055332;28;20523;-65
2022/04/14 07:26:45;;;;;;;14.93;5.95;;;14.30;70.60;;;;;;5055527;28;20029;-65
2022/04/14 07:29:11;;;;;;;21.40;6.47;;;14.30;70.00;;;;;;5055874;28;20117;-65
2022/04/14 07:31:37;;;;;;;18.58;5.68;;;14.40;70.90;;;;;;5055984;28;20088;-65
2022/04/14 07:34:05;;;;;;;10.23;5.25;;;14.50;69.70;;;;;;5055645;28;20050;-65
2022/04/14 07:36:30;;;;;;;13.32;6.03;;;14.50;69.90;;;;;;5053818;28;20045;-64
2022/04/14 07:38:56;;;;;;;12.68;6.32;;;14.50;69.40;;;;;;5055091;28;20057;-65
2022/04/14 07:41:22;;;;;;;12.85;5.38;;;14.60;69.00;;;;;;5055248;28;20033;-64
2022/04/14 07:43:48;;;;;;;16.85;5.30;;;14.70;68.80;;;;;;5055153;28;20062;-66
2022/04/14 07:46:13;;;;;;;9.43;4.25;;;14.80;69.10;;;;;;5055612;28;20113;-66
2022/04/14 07:48:39;;;;;;;7.30;4.10;;;14.80;69.00;;;;;;5054095;28;20037;-68
2022/04/14 07:51:05;;;;;;;7.57;3.90;;;14.90;68.00;;;;;;5054388;28;20033;-66
2022/04/14 07:53:31;;;;;;;8.10;3.50;;;15.00;67.40;;;;;;5054735;28;20466;-65
2022/04/14 07:55:56;;;;;;;7.25;3.25;;;15.10;67.10;;;;;;5055496;28;20032;-65
2022/04/14 07:58:22;;;;;;;10.68;3.50;;;15.20;67.00;;;;;;5054955;28;20103;-65
2022/04/14 08:00:50;;;;;;;10.48;3.70;;;15.20;66.40;;;;;;5054673;28;20056;-67
2022/04/14 08:03:16;;;;;;;11.13;3.35;;;15.40;66.50;;;;;;5054095;28;20040;-65
2022/04/14 08:05:46;;;;;;;10.23;4.15;;;15.40;66.60;;;;;;5054559;28;20509;-65
2022/04/14 08:08:14;;;;;;;11.65;3.60;;;15.60;66.10;;;;;;5055089;28;20037;-66
2022/04/14 08:10:44;;;;;;;6.75;3.03;;;15.70;65.90;;;;;;5055069;28;20041;-65
2022/04/14 08:13:10;;;;;;;7.43;3.40;;;15.80;65.60;;;;;;5054816;28;20032;-66
2022/04/14 08:15:36;;;;;;;7.95;3.30;;;15.90;65.80;;;;;;5054626;28;20056;-70
2022/04/14 08:18:03;;;;;;;12.10;3.15;;;16.00;64.70;;;;;;5054962;28;20088;-65
2022/04/14 08:20:29;;;;;;;10.27;3.67;;;;;;;;;;5053617;28;20033;-67
2022/04/14 08:22:59;;;;;;;10.25;3.13;;;;;;;;;;5053969;28;20044;-64
2022/04/14 08:25:26;;;;;;;6.68;2.97;;;;;;;;;;5054503;28;20040;-65
2022/04/14 08:27:52;;;;;;;8.77;2.75;;;;;;;;;;5054394;28;20037;-65
2022/04/14 08:30:20;;;;;;;4.40;2.88;;;;;;;;;;5054447;28;20045;-64
2022/04/14 08:32:46;;;;;;;3.70;2.58;;;;;;;;;;5054458;28;20026;-68
2022/04/14 08:35:13;;;;;;;5.70;2.90;;;;;;;;;;5053606;28;20033;-65
2022/04/14 08:37:39;;;;;;;5.28;2.53;;;;;;;;;;5054095;28;20086;-65
2022/04/14 08:40:06;;;;;;;3.90;2.70;;;;;;;;;;5053935;28;20477;-65
2022/04/14 08:42:38;;;;;;;11.85;3.00;;;;;;;;;;5054389;28;20033;-65
2022/04/14 08:45:05;;;;;;;9.23;2.70;;;;;;;;;;5054462;28;20047;-65
2022/04/14 08:47:32;;;;;;;7.15;2.65;;;;;;;;;;5054115;28;20044;-66
2022/04/14 08:49:59;;;;;;;9.38;2.47;;;;;;;;;;5054193;28;20094;-64
2022/04/14 08:52:26;;;;;;;5.97;2.60;;;;;;;;;;5054080;28;20056;-65
2022/04/14 08:54:53;;;;;;;10.00;2.67;;;;;;;;;;5054161;28;20045;-67
2022/04/14 08:57:19;;;;;;;8.95;2.50;;;;;;;;;;5053868;28;20060;-65
2022/04/14 08:59:46;;;;;;;8.10;2.67;;;;;;;;;;5053494;28;20052;-66
2022/04/14 09:02:15;;;;;;;6.70;2.42;;;;;;;;;;5053784;28;20035;-65
2022/04/14 09:04:43;;;;;;;4.90;2.53;;;;;;;;;;5053473;28;20052;-65
2022/04/14 09:07:09;;;;;;;5.90;2.75;;;;;;;;;;5053946;28;20045;-65
2022/04/14 09:09:35;;;;;;;5.40;2.65;;;;;;;;;;5054066;28;20075;-65
2022/04/14 09:12:01;;;;;;;3.90;2.35;;;;;;;;;;5053773;28;20437;-66
2022/04/14 09:14:28;;;;;;;5.57;2.45;;;;;;;;;;5054113;28;20033;-67
2022/04/14 09:16:54;;;;;;;6.38;2.50;;;16.10;64.00;;;;;;5053900;28;20041;-66
2022/04/14 09:19:20;;;;;;;7.75;2.78;;;18.40;56.30;;;;;;5053390;28;20041;-68
2022/04/14 09:22:00;;;;;;;16.35;3.20;;;18.40;56.00;;;;;;5053051;28;20051;-67
2022/04/14 09:24:49;;;;;;;8.38;2.60;;;18.50;56.90;;;;;;5051670;28;20037;-66
2022/04/14 09:27:27;;;;;;;11.35;3.03;;;18.60;57.10;;;;;;5053511;28;20025;-66
2022/04/14 09:29:55;;;;;;;14.55;3.22;;;18.70;56.30;;;;;;5053155;28;20036;-66
2022/04/14 09:32:33;;;;;;;5.35;2.53;;;18.90;56.40;;;;;;5052323;28;20071;-66
2022/04/14 09:35:02;;;;;;;4.88;2.38;;;19.00;57.00;;;;;;5053365;28;20505;-67
2022/04/14 09:37:28;;;;;;;6.43;2.75;;;19.00;56.20;;;;;;5052659;28;20037;-69
2022/04/14 09:39:56;;;;;;;9.40;3.28;;;19.10;55.90;;;;;;5053148;28;20053;-68
2022/04/14 09:42:27;;;;;;;6.50;3.00;;;19.10;56.40;;;;;;5052103;28;20037;-67
2022/04/14 09:44:53;;;;;;;7.95;3.22;;;19.30;55.80;;;;;;5052462;28;20158;-68
2022/04/14 09:47:25;;;;;;;6.88;2.70;;;19.30;55.10;;;;;;5052641;28;20032;-67
2022/04/14 09:49:51;;;;;;;10.55;3.00;;;19.40;55.30;;;;;;5052627;28;20068;-67
2022/04/14 09:52:17;;;;;;;7.13;2.80;;;19.50;54.90;;;;;;5052870;28;20127;-68
2022/04/14 09:54:44;;;;;;;4.85;2.95;;;19.60;54.70;;;;;;5053014;28;20035;-68
2022/04/14 09:57:12;;;;;;;13.68;4.00;;;19.70;55.30;;;;;;5051612;28;20065;-69
2022/04/14 09:59:38;;;;;;;6.93;3.67;;;19.80;54.80;;;;;;5052520;28;20049;-67
2022/04/14 10:02:12;;;;;;;12.00;2.95;;;19.80;54.90;;;;;;5052746;28;20037;-70
2022/04/14 10:04:46;;;;;;;10.18;3.17;;;19.90;54.00;;;;;;5052929;28;20102;-70
2022/04/14 10:07:19;;;;;;;6.63;2.85;;;20.00;54.60;;;;;;5052835;28;20095;-69
2022/04/14 10:09:50;;;;;;;5.35;2.80;;;20.10;54.20;;;;;;5050687;28;20036;-66
2022/04/14 10:12:19;;;;;;;7.18;2.90;;;20.20;54.70;;;;;;5050686;28;20048;-66
2022/04/14 10:15:07;;;;;;;9.60;3.55;;;20.30;54.00;;;;;;5050399;28;20072;-67
2022/04/14 10:17:38;;;;;;;13.52;4.18;;;20.30;54.20;;;;;;5051284;28;20470;-67
2022/04/14 10:20:09;;;;;;;10.48;3.50;;;20.40;53.10;;;;;;5050983;28;20124;-66
2022/04/14 10:22:36;;;;;;;8.23;3.75;;;20.50;52.90;;;;;;5050507;28;20021;-67
2022/04/14 10:25:02;;;;;;;8.55;3.28;;;20.60;54.20;;;;;;5052397;28;20033;-67
2022/04/14 10:27:30;;;;;;;7.38;3.45;;;20.60;54.80;;;;;;5052760;28;20029;-66
2022/04/14 10:29:56;;;;;;;7.57;3.80;;;20.70;54.60;;;;;;5052368;28;20090;-67
2022/04/14 10:32:23;;;;;;;10.95;3.45;;;20.80;54.60;;;;;;5052410;28;20037;-67
2022/04/14 10:34:49;;;;;;;12.15;3.40;;;20.90;54.40;;;;;;5052711;28;20068;-67
2022/04/14 10:37:27;;;;;;;7.00;3.25;;;21.00;54.30;;;;;;5052734;28;20503;-71
2022/04/14 10:39:55;;;;;;;10.52;3.75;;;21.00;54.00;;;;;;5052225;28;20045;-67
2022/04/14 10:42:26;;;;;;;10.27;3.08;;;21.10;53.10;;;;;;5052797;28;20070;-67
2022/04/14 10:44:53;;;;;;;6.93;3.05;;;21.20;53.50;;;;;;5056890;28;20032;-70
2022/04/14 10:47:53;;;;;;;11.70;3.35;;;21.30;52.60;;;;;;5057026;28;20083;-68
2022/04/14 10:50:21;;;;;;;10.90;3.03;;;21.40;51.30;;;;;;5056461;28;20029;-67
2022/04/14 10:53:24;;;;;;;5.03;3.08;;;21.40;51.90;;;;;;5056554;28;20060;-68
2022/04/14 10:55:52;;;;;;;9.07;3.30;;;21.50;51.20;;;;;;5056482;28;20067;-67
2022/04/14 10:58:27;;;;;;;7.22;2.60;;;21.60;51.20;;;;;;5055867;28;20103;-67
2022/04/14 11:00:54;;;;;;;7.38;2.20;;;21.70;49.70;;;;;;5054708;28;20102;-67
2022/04/14 11:03:19;;;;;;;5.03;2.10;;;21.80;47.40;;;;;;5055055;28;20037;-67
2022/04/14 11:05:50;;;;;;;7.20;2.22;;;21.70;45.90;;;;;;5054809;28;20033;-67
2022/04/14 11:08:27;;;;;;;16.13;2.58;;;21.80;45.30;;;;;;5054500;28;20466;-66
2022/04/14 11:10:54;;;;;;;3.80;2.05;;;21.70;45.20;;;;;;5052573;28;20120;-66
2022/04/14 11:13:20;;;;;;;5.22;2.17;;;21.70;45.40;;;;;;5054566;28;20049;-67
2022/04/14 11:15:46;;;;;;;4.95;2.28;;;21.70;46.20;;;;;;5054563;28;20527;-67
2022/04/14 11:18:11;;;;;;;6.80;2.13;;;21.70;45.40;;;;;;5054590;28;20041;-66
2022/04/14 11:20:45;;;;;;;7.10;2.30;;;21.60;45.60;;;;;;5054685;28;20029;-69
2022/04/14 11:23:24;;;;;;;4.93;2.28;;;21.70;45.30;;;;;;5055688;28;20082;-73
2022/04/14 11:25:52;;;;;;;5.15;1.90;;;21.70;45.20;;;;;;5055279;28;20060;-66
2022/04/14 11:28:56;;;;;;;4.10;1.80;;;21.80;45.10;;;;;;5055636;28;20036;-65
2022/04/14 11:31:23;;;;;;;5.25;1.80;;;21.90;44.80;;;;;;5052545;28;20047;-64
2022/04/14 11:33:50;;;;;;;6.15;2.13;;;22.00;43.90;;;;;;5056136;28;20037;-69
2022/04/14 11:36:16;;;;;;;4.82;1.90;;;22.00;43.50;;;;;;5055852;28;20041;-65
2022/04/14 11:38:55;;;;;;;8.65;2.55;;;22.10;43.20;;;;;;5055968;28;20476;-66
2022/04/14 11:41:46;;;;;;;6.85;1.90;;;22.10;44.20;;;;;;5055569;28;20508;-70
2022/04/14 11:44:21;;;;;;;4.00;2.00;;;22.10;44.60;;;;;;5056065;28;20052;-65
2022/04/14 11:46:51;;;;;;;5.88;1.88;;;22.20;44.70;;;;;;5055396;28;20037;-69
2022/04/14 11:49:19;;;;;;;6.20;2.17;;;22.30;45.60;;;;;;5055570;28;20390;-65
2022/04/14 11:51:50;;;;;;;6.95;1.90;;;22.50;46.70;;;;;;5055450;28;20036;-65
2022/04/14 11:54:37;;;;;;;6.55;2.17;;;22.60;47.50;;;;;;5054683;28;20029;-66
2022/04/14 11:57:09;;;;;;;6.15;2.40;;;22.80;46.10;;;;;;5055804;28;20120;-65
2022/04/14 11:59:37;;;;;;;3.13;1.75;;;22.90;45.50;;;;;;5055272;28;20041;-65
2022/04/14 12:02:08;;;;;;;6.35;2.00;;;23.10;45.40;;;;;;5054782;28;20037;-65
2022/04/14 12:04:36;;;;;;;5.15;1.90;;;23.20;44.00;;;;;;5055653;28;20048;-65
2022/04/14 12:07:02;;;;;;;6.30;2.30;;;23.20;43.80;;;;;;5055545;28;20362;-65
2022/04/14 12:09:28;;;;;;;7.68;2.83;;;23.30;44.30;;;;;;5055329;28;20413;-66
2022/04/14 12:11:54;;;;;;;5.90;2.30;;;23.40;44.80;;;;;;5055112;28;20052;-64
2022/04/14 12:14:21;;;;;;;5.97;2.55;;;23.40;43.40;;;;;;5055117;28;20119;-65
2022/04/14 12:16:51;;;;;;;5.78;2.50;;;23.50;43.00;;;;;;5055014;28;20112;-70
2022/04/14 12:19:17;;;;;;;5.18;2.28;;;23.60;44.30;;;;;;5055230;28;20140;-65
2022/04/14 12:21:43;;;;;;;4.80;2.08;;;23.70;41.20;;;;;;5054885;28;20404;-65
2022/04/14 12:24:08;;;;;;;4.88;2.22;;;23.80;40.90;;;;;;5051694;28;20040;-64
2022/04/14 12:26:37;;;;;;;7.32;2.22;;;23.80;42.70;;;;;;5051787;28;20397;-65
2022/04/14 12:29:09;;;;;;;4.55;2.35;;;23.90;42.20;;;;;;5053230;28;20040;-69
2022/04/14 12:31:35;;;;;;;5.18;2.40;;;23.90;42.50;;;;;;5054690;28;20151;-67
2022/04/14 12:34:01;;;;;;;6.43;2.40;;;24.00;44.00;;;;;;5054543;28;20036;-65
2022/04/14 12:36:34;;;;;;;4.10;2.25;;;24.10;43.50;;;;;;5054781;28;20036;-65
2022/04/14 12:39:03;;;;;;;7.13;2.35;;;24.20;42.60;;;;;;5054613;28;20424;-65
2022/04/14 12:41:34;;;;;;;6.80;2.20;;;24.20;41.60;;;;;;5054636;28;20059;-65
2022/04/14 12:44:00;;;;;;;8.48;2.45;;;24.20;41.20;;;;;;5053748;28;20041;-65
2022/04/14 12:46:30;;;;;;;5.85;2.75;;;24.20;41.70;;;;;;5053163;28;20029;-66
2022/04/14 12:49:18;;;;;;;6.97;2.80;;;24.20;41.70;;;;;;5050849;28;20090;-65
2022/04/14 12:51:53;;;;;;;11.02;2.50;;;24.20;41.70;;;;;;5051751;28;20035;-65
2022/04/14 12:54:18;;;;;;;5.20;2.60;;;24.20;43.90;;;;;;5052742;28;20029;-64